Time;durP1;ratioP1;P1;durP2;ratioP2;P2;SDS_P1;SDS_P2;PMS_P1;PMS_P2;Temp;Humidity;BMP_temperature;BMP_pressure;BME280_temperature;BME280_humidity;BME280_pressure;Samples;Min_cycle;Max_cycle;Signal;HPM_P1;HPM_P2
2022/03/23 00:00:34;;;;;;;24.98;16.20;;;3.80;99.90;;;3.40;100.00;98801.84;5004950;28;20057;-74
2022/03/23 00:03:02;;;;;;;28.88;16.20;;;3.80;99.90;;;3.20;100.00;98809.47;5004079;28;20046;-74
2022/03/23 00:05:29;;;;;;;24.88;14.93;;;3.80;99.90;;;3.17;100.00;98805.16;5002733;28;20205;-74
2022/03/23 00:07:56;;;;;;;27.27;15.95;;;3.80;99.90;;;3.18;100.00;98806.03;4999650;28;20121;-74
2022/03/23 00:10:24;;;;;;;29.42;17.40;;;3.70;99.90;;;3.07;100.00;98804.22;5001581;28;20042;-74
2022/03/23 00:12:51;;;;;;;27.73;17.23;;;3.70;99.90;;;3.18;100.00;98814.56;5000769;28;20077;-73
2022/03/23 00:15:18;;;;;;;21.05;14.57;;;3.70;99.90;;;3.00;100.00;98804.19;5005191;28;20049;-73
2022/03/23 00:17:46;;;;;;;25.05;15.25;;;3.70;99.90;;;2.97;100.00;98811.88;5005383;28;20488;-73
2022/03/23 00:20:14;;;;;;;26.80;16.60;;;3.60;99.90;;;2.92;100.00;98807.56;5004968;28;20238;-73
2022/03/23 00:22:42;;;;;;;28.60;16.25;;;3.60;99.90;;;2.83;100.00;98804.91;5005666;28;20532;-73
2022/03/23 00:25:09;;;;;;;25.25;15.75;;;3.60;99.90;;;2.71;100.00;98808.25;5004557;28;20092;-74
2022/03/23 00:27:37;;;;;;;26.52;15.50;;;3.50;99.90;;;2.78;100.00;98805.72;5004962;28;20084;-73
2022/03/23 00:30:05;;;;;;;31.48;18.35;;;3.50;99.90;;;2.83;100.00;98810.03;5001707;28;20168;-73
2022/03/23 00:32:32;;;;;;;30.98;17.75;;;3.40;99.90;;;2.74;100.00;98802.28;5000853;28;20135;-72
2022/03/23 00:35:02;;;;;;;28.77;17.75;;;3.40;99.90;;;2.71;100.00;98803.13;5001423;28;20074;-73
2022/03/23 00:37:29;;;;;;;28.08;18.50;;;3.30;99.90;;;2.68;100.00;98807.34;5000128;28;20052;-74
2022/03/23 00:39:56;;;;;;;34.40;19.83;;;3.30;99.90;;;2.79;100.00;98807.44;5016771;28;20455;-73
2022/03/23 00:42:23;;;;;;;25.98;17.30;;;3.30;99.90;;;2.74;100.00;98812.53;5000349;28;20057;-73
2022/03/23 00:44:51;;;;;;;22.95;16.13;;;3.30;99.90;;;2.76;100.00;98802.28;4996098;28;20528;-73
2022/03/23 00:47:18;;;;;;;26.10;15.77;;;3.30;99.90;;;2.60;100.00;98802.16;5004461;28;20092;-73
2022/03/23 00:49:46;;;;;;;27.20;16.17;;;3.30;99.90;;;2.53;100.00;98807.19;5013584;28;20571;-73
2022/03/23 00:52:13;;;;;;;25.40;14.38;;;3.20;99.90;;;2.49;100.00;98806.31;4998083;28;20100;-73
2022/03/23 00:54:40;;;;;;;29.13;15.90;;;3.20;99.90;;;2.38;100.00;98811.34;4999858;28;20137;-73
2022/03/23 00:57:08;;;;;;;33.78;18.52;;;3.20;99.90;;;2.44;100.00;98806.28;5001744;28;20136;-73
2022/03/23 00:59:35;;;;;;;30.83;17.98;;;3.10;99.90;;;2.48;100.00;98807.16;5003484;28;20470;-74
2022/03/23 01:02:03;;;;;;;31.42;18.10;;;3.10;99.90;;;2.44;100.00;98808.84;5003089;28;20779;-74
2022/03/23 01:04:30;;;;;;;27.10;17.13;;;3.20;99.90;;;2.41;100.00;98803.66;4999612;28;20141;-73
2022/03/23 01:06:58;;;;;;;27.17;16.00;;;3.10;99.90;;;2.34;100.00;98801.03;4998873;28;20137;-73
2022/03/23 01:09:25;;;;;;;25.95;17.08;;;3.10;99.90;;;2.47;100.00;98813.13;4997927;28;20137;-74
2022/03/23 01:11:54;;;;;;;29.55;16.40;;;3.00;99.90;;;2.39;100.00;98807.91;5001148;28;20131;-73
2022/03/23 01:14:24;;;;;;;26.60;17.00;;;3.00;99.90;;;2.48;100.00;98809.72;5001096;28;20125;-74
2022/03/23 01:16:52;;;;;;;26.27;15.70;;;3.00;99.90;;;2.41;100.00;98807.94;5002301;28;20615;-74
2022/03/23 01:19:28;;;;;;;27.77;17.92;;;;;;;2.33;100.00;98800.19;5003109;28;20049;-74
2022/03/23 01:21:55;;;;;;;27.20;16.73;;;3.00;99.90;;;2.32;100.00;98801.03;5003833;28;20093;-73
2022/03/23 01:24:22;;;;;;;28.98;17.20;;;3.00;99.90;;;2.55;100.00;98802.94;5008149;28;20132;-73
2022/03/23 01:26:49;;;;;;;27.63;16.08;;;3.00;99.90;;;2.66;100.00;98801.34;5007322;28;20421;-73
2022/03/23 01:29:16;;;;;;;27.23;18.38;;;3.00;99.90;;;1.95;100.00;98795.50;5002953;28;20081;-73
2022/03/23 01:31:43;;;;;;;31.52;18.90;;;3.00;99.90;;;1.51;100.00;98800.97;5000409;28;20085;-73
2022/03/23 01:34:10;;;;;;;26.70;17.13;;;2.90;99.90;;;1.49;100.00;98797.50;4996935;28;20056;-74
2022/03/23 01:36:38;;;;;;;26.70;17.23;;;;;;;1.98;100.00;98800.66;5002433;28;20074;-74
2022/03/23 01:39:05;;;;;;;35.20;20.33;;;2.80;99.90;;;1.88;100.00;98786.91;5003482;28;20094;-74
2022/03/23 01:41:39;;;;;;;37.83;22.80;;;2.80;99.90;;;1.77;100.00;98797.84;5004337;28;20073;-74
2022/03/23 01:44:13;;;;;;;35.10;21.40;;;2.80;99.90;;;1.96;100.00;98797.25;5000667;28;20089;-74
2022/03/23 01:47:01;;;;;;;39.58;22.17;;;2.80;99.90;;;1.82;100.00;98791.09;5007762;28;20132;-74
2022/03/23 01:49:29;;;;;;;39.78;22.52;;;2.80;99.90;;;1.73;100.00;98796.09;5002648;28;20137;-74
2022/03/23 01:51:56;;;;;;;35.30;21.00;;;2.70;99.90;;;1.74;100.00;98792.72;5013205;28;20470;-74
2022/03/23 01:54:23;;;;;;;33.00;20.60;;;2.70;99.90;;;1.98;100.00;98798.09;4998997;28;20132;-74
2022/03/23 01:56:50;;;;;;;31.70;20.23;;;2.70;99.90;;;2.00;100.00;98798.97;5000676;28;20096;-73
2022/03/23 01:59:18;;;;;;;31.67;21.98;;;2.80;99.90;;;1.77;100.00;98797.84;5000828;28;20128;-73
2022/03/23 02:01:46;;;;;;;31.42;21.48;;;2.80;99.90;;;1.76;100.00;98788.47;5003433;28;20054;-73
2022/03/23 02:04:13;;;;;;;33.33;19.95;;;2.80;99.90;;;1.86;100.00;98792.84;5002375;28;20060;-74
2022/03/23 02:06:40;;;;;;;29.38;19.65;;;2.70;99.90;;;1.92;100.00;98789.50;4999070;28;20054;-74
2022/03/23 02:09:07;;;;;;;27.00;18.42;;;2.70;99.90;;;1.83;100.00;98787.69;5002142;28;20145;-73
2022/03/23 02:11:35;;;;;;;26.42;18.67;;;2.70;99.90;;;1.84;100.00;98789.41;5002022;28;20065;-73
2022/03/23 02:14:05;;;;;;;26.92;18.73;;;2.70;99.90;;;1.91;100.00;98782.66;5002096;28;20054;-73
2022/03/23 02:16:42;;;;;;;23.35;16.77;;;2.70;99.90;;;1.92;100.00;98785.25;5001171;28;20081;-74
2022/03/23 02:19:10;;;;;;;24.08;16.42;;;2.70;99.90;;;2.00;100.00;98787.88;5013731;28;20053;-73
2022/03/23 02:21:48;;;;;;;25.05;17.75;;;2.60;99.90;;;1.90;100.00;98786.06;4999278;28;20082;-73
2022/03/23 02:24:16;;;;;;;26.95;18.02;;;2.60;99.90;;;1.76;100.00;98786.75;4995032;28;20141;-75
2022/03/23 02:26:43;;;;;;;26.67;18.25;;;2.50;99.90;;;1.73;100.00;98785.84;5002613;28;20559;-73
2022/03/23 02:29:10;;;;;;;25.17;16.55;;;2.50;99.90;;;1.72;100.00;98789.28;5000923;28;20053;-75
2022/03/23 02:31:37;;;;;;;26.88;17.90;;;2.50;99.90;;;1.70;100.00;98789.25;4997462;28;20152;-75
2022/03/23 02:34:05;;;;;;;25.67;17.65;;;2.50;99.90;;;1.60;100.00;98790.00;4999065;28;20124;-74
2022/03/23 02:36:32;;;;;;;24.85;15.95;;;2.40;99.90;;;1.80;100.00;98787.66;4997586;28;20130;-74
2022/03/23 02:38:59;;;;;;;25.73;17.05;;;2.40;99.90;;;1.78;100.00;98786.75;5001415;28;20472;-74
2022/03/23 02:41:25;;;;;;;24.13;16.98;;;2.30;99.90;;;1.74;100.00;98782.47;5004975;28;20086;-74
2022/03/23 02:43:52;;;;;;;24.83;17.05;;;2.30;99.90;;;1.70;100.00;98784.13;5003207;28;20140;-75
2022/03/23 02:46:20;;;;;;;24.17;16.98;;;2.30;99.90;;;1.61;100.00;98784.88;4998881;28;20062;-74
2022/03/23 02:48:53;;;;;;;22.42;16.25;;;2.30;99.90;;;1.44;100.00;98783.81;5002435;28;20145;-73
2022/03/23 02:51:20;;;;;;;24.40;16.88;;;2.30;99.90;;;1.52;100.00;98786.47;5018139;28;20150;-74
2022/03/23 03:02:37;;;;;;;24.33;16.25;;;2.10;99.90;;;1.44;100.00;98782.09;5002626;28;20145;-74
2022/03/23 03:05:08;;;;;;;28.77;17.58;;;2.10;99.90;;;1.29;100.00;98787.00;5002900;28;20052;-73
2022/03/23 03:08:44;;;;;;;25.52;16.15;;;2.10;99.90;;;1.42;100.00;98788.91;5006843;28;20699;-74
2022/03/23 03:10:26;;;;;;;24.35;17.27;;;2.10;99.90;;;1.15;100.00;98791.06;5006152;28;20096;-73
2022/03/23 03:12:53;;;;;;;28.20;18.42;;;2.10;99.90;;;0.83;100.00;98789.75;5004697;28;20048;-74
2022/03/23 03:15:23;;;;;;;27.77;18.65;;;2.00;99.90;;;0.82;100.00;98794.81;5006899;28;20049;-73
2022/03/23 03:17:51;;;;;;;25.52;18.38;;;2.00;99.90;;;1.03;100.00;98794.31;5016786;28;20105;-73
2022/03/23 03:20:18;;;;;;;25.90;17.50;;;1.90;99.90;;;1.15;100.00;98794.50;5002119;28;20499;-74
2022/03/23 03:22:46;;;;;;;25.40;17.45;;;2.00;99.90;;;0.75;100.00;98804.13;5003500;28;20070;-74
2022/03/23 03:25:16;;;;;;;28.20;18.25;;;2.00;99.90;;;0.84;100.00;98800.81;5006868;28;20081;-74
2022/03/23 03:27:44;;;;;;;27.23;17.75;;;1.80;99.90;;;0.88;100.00;98806.84;5003380;28;20185;-74
2022/03/23 03:30:15;;;;;;;27.33;16.63;;;1.80;99.90;;;1.09;100.00;98799.50;5006428;28;20054;-74
2022/03/23 03:32:47;;;;;;;26.83;17.20;;;1.90;99.90;;;1.02;100.00;98808.78;5006268;28;20049;-74
2022/03/23 03:35:15;;;;;;;23.73;16.33;;;1.90;99.90;;;1.07;100.00;98808.00;5002150;28;20045;-74
2022/03/23 03:37:42;;;;;;;27.10;17.33;;;1.90;99.90;;;1.02;100.00;98807.91;5000485;28;20559;-74
2022/03/23 03:40:10;;;;;;;24.77;16.10;;;1.80;99.90;;;1.06;100.00;98802.03;5001253;28;20053;-73
2022/03/23 03:42:37;;;;;;;28.02;18.20;;;1.80;99.90;;;0.90;100.00;98811.16;5007074;28;20050;-73
2022/03/23 03:45:07;;;;;;;21.17;16.05;;;1.80;99.90;;;0.86;100.00;98805.97;5004293;28;20861;-74
2022/03/23 03:47:35;;;;;;;28.65;18.95;;;1.80;99.90;;;0.84;100.00;98808.50;4991839;28;20429;-74
2022/03/23 03:50:03;;;;;;;26.95;18.13;;;1.70;99.90;;;0.68;100.00;98819.31;5012818;28;20046;-74
2022/03/23 03:52:32;;;;;;;26.92;18.73;;;1.60;99.90;;;0.63;100.00;98822.63;5012393;28;20180;-73
2022/03/23 03:54:59;;;;;;;27.92;19.38;;;1.50;99.90;;;0.69;100.00;98824.44;4998240;28;20100;-73
2022/03/23 03:57:26;;;;;;;24.63;17.27;;;1.50;99.90;;;0.77;100.00;98819.44;5002354;28;20076;-74
2022/03/23 03:59:54;;;;;;;24.90;16.90;;;1.50;99.90;;;0.88;100.00;98817.94;5008176;28;20068;-74
2022/03/23 04:02:21;;;;;;;25.75;17.55;;;1.50;99.90;;;0.77;100.00;98822.88;4996732;28;20133;-74
2022/03/23 04:04:48;;;;;;;27.38;19.67;;;1.60;99.90;;;0.75;100.00;98822.00;5001186;28;20050;-74
2022/03/23 04:07:15;;;;;;;23.20;16.67;;;1.50;99.90;;;0.82;100.00;98820.38;5005558;28;20041;-73
2022/03/23 04:09:42;;;;;;;25.52;16.75;;;1.60;99.90;;;0.78;100.00;98822.03;5003635;28;20125;-73
2022/03/23 04:12:09;;;;;;;21.10;16.70;;;1.60;99.90;;;0.84;100.00;98828.94;4999809;28;20149;-73
2022/03/23 04:14:36;;;;;;;24.40;16.85;;;1.60;99.90;;;0.83;100.00;98822.13;5003690;28;20559;-74
2022/03/23 04:17:04;;;;;;;29.70;18.17;;;1.60;99.90;;;0.75;100.00;98823.69;5003989;28;20129;-72
2022/03/23 04:19:31;;;;;;;23.63;17.23;;;1.60;99.90;;;0.56;100.00;98830.19;4998739;28;20498;-73
2022/03/23 04:21:58;;;;;;;28.30;19.25;;;1.60;99.90;;;0.38;100.00;98830.72;5001382;28;20161;-74
2022/03/23 04:24:25;;;;;;;29.15;18.98;;;1.50;99.90;;;0.50;100.00;98828.41;5004723;28;20099;-72
2022/03/23 04:26:52;;;;;;;27.90;18.75;;;1.50;99.90;;;0.29;100.00;98830.53;5002706;28;20077;-75
2022/03/23 04:29:24;;;;;;;34.10;20.38;;;1.40;99.90;;;0.14;100.00;98834.53;5002087;28;20140;-73
2022/03/23 04:31:51;;;;;;;28.85;19.27;;;1.40;99.90;;;0.22;100.00;98839.78;5003381;28;20104;-74
2022/03/23 04:34:18;;;;;;;27.35;19.48;;;1.30;99.90;;;0.09;100.00;98842.94;5004753;28;20084;-74
2022/03/23 04:36:47;;;;;;;31.08;19.60;;;1.30;99.90;;;0.23;100.00;98840.63;5003671;28;20140;-73
2022/03/23 04:39:15;;;;;;;25.05;18.25;;;;;;;0.49;100.00;98841.97;5006308;28;20533;-74
2022/03/23 04:41:42;;;;;;;27.13;19.42;;;1.30;99.90;;;0.55;100.00;98846.34;5004713;28;20149;-73
2022/03/23 04:44:09;;;;;;;28.13;19.63;;;1.40;99.90;;;0.50;100.00;98842.84;4997288;28;20053;-74
2022/03/23 04:46:36;;;;;;;24.48;18.23;;;1.40;99.90;;;0.56;100.00;98845.50;5003819;28;20121;-73
2022/03/23 04:49:03;;;;;;;30.83;19.20;;;1.40;99.90;;;0.49;100.00;98847.09;5002102;28;20495;-73
2022/03/23 04:51:31;;;;;;;28.67;17.92;;;1.40;99.90;;;0.55;100.00;98854.88;5003843;28;20053;-73
2022/03/23 04:53:58;;;;;;;22.00;14.90;;;1.40;99.90;;;0.64;100.00;98849.06;5002389;28;20583;-74
2022/03/23 04:56:25;;;;;;;25.02;17.23;;;1.40;99.90;;;0.62;100.00;98845.63;5004230;28;20078;-73
2022/03/23 04:58:54;;;;;;;26.35;17.13;;;1.40;99.90;;;0.70;100.00;98848.31;5003494;28;20192;-74
2022/03/23 05:01:21;;;;;;;26.00;17.35;;;1.30;99.90;;;0.65;100.00;98835.44;5000868;28;20110;-73
2022/03/23 05:03:49;;;;;;;24.27;16.58;;;1.40;99.90;;;0.73;100.00;98846.69;5001641;28;20104;-73
2022/03/23 05:06:16;;;;;;;26.23;16.38;;;1.30;99.90;;;0.66;100.00;98849.94;5001358;28;20122;-74
2022/03/23 05:08:43;;;;;;;26.42;16.88;;;1.30;99.90;;;0.55;100.00;98846.34;4996911;28;20538;-72
2022/03/23 05:11:12;;;;;;;22.70;16.45;;;1.30;99.90;;;0.46;100.00;98852.16;5002702;28;20460;-74
2022/03/23 05:13:40;;;;;;;24.65;16.38;;;1.30;99.90;;;0.44;100.00;98853.81;5003807;28;20120;-73
2022/03/23 05:16:07;;;;;;;26.42;17.10;;;1.30;99.90;;;0.47;100.00;98853.00;5004842;28;20053;-74
2022/03/23 05:18:35;;;;;;;23.88;16.35;;;1.20;99.90;;;0.60;100.00;98848.16;4998817;28;20078;-73
2022/03/23 05:21:02;;;;;;;26.48;17.63;;;1.30;99.90;;;0.54;100.00;98850.59;5016172;28;20438;-73
2022/03/23 05:23:29;;;;;;;25.50;16.23;;;1.20;99.90;;;0.45;100.00;98859.78;4996791;28;20049;-73
2022/03/23 05:25:56;;;;;;;27.70;19.10;;;1.20;99.90;;;0.32;100.00;98851.03;5000288;28;20375;-74
2022/03/23 05:28:29;;;;;;;30.73;19.23;;;1.10;99.90;;;0.45;100.00;98859.78;5000978;28;20066;-74
2022/03/23 05:30:57;;;;;;;26.05;17.77;;;1.10;99.90;;;0.28;100.00;98854.38;5005139;28;20085;-73
2022/03/23 05:33:24;;;;;;;27.33;19.15;;;1.20;99.90;;;0.18;100.00;98859.31;5004160;28;20054;-74
2022/03/23 05:35:51;;;;;;;26.33;18.15;;;1.10;99.90;;;0.27;100.00;98852.63;5003852;28;20054;-73
2022/03/23 05:38:18;;;;;;;29.02;19.08;;;1.10;99.90;;;0.30;100.00;98862.94;4999401;28;20170;-73
2022/03/23 05:40:45;;;;;;;25.83;18.95;;;1.10;99.90;;;0.37;100.00;98862.22;5003410;28;20128;-74
2022/03/23 05:43:12;;;;;;;24.05;17.92;;;1.10;99.90;;;0.34;100.00;98862.13;5001565;28;20619;-74
2022/03/23 05:45:39;;;;;;;27.05;17.35;;;1.10;99.90;;;0.38;100.00;98861.38;5002088;28;20121;-74
2022/03/23 05:48:06;;;;;;;28.80;16.35;;;1.10;99.90;;;0.61;100.00;98860.06;5003097;28;20053;-74
2022/03/23 05:50:33;;;;;;;27.52;18.38;;;1.20;99.90;;;0.49;100.00;98862.41;5004677;28;20076;-74
2022/03/23 05:53:00;;;;;;;26.75;18.48;;;1.20;99.90;;;0.40;100.00;98859.69;5000360;28;20065;-73
2022/03/23 05:55:27;;;;;;;25.35;17.92;;;1.20;99.90;;;0.45;100.00;98863.19;5009964;28;20128;-74
2022/03/23 05:57:55;;;;;;;30.20;19.50;;;1.30;99.90;;;0.55;100.00;98864.25;5009567;28;20056;-74
2022/03/23 06:00:22;;;;;;;26.70;18.77;;;1.30;99.90;;;0.68;100.00;98868.72;5005123;28;20046;-74
2022/03/23 06:02:50;;;;;;;28.60;20.20;;;1.40;99.90;;;0.28;100.00;98874.81;5004775;28;20054;-75
2022/03/23 06:05:17;;;;;;;32.33;22.35;;;1.40;99.90;;;-0.02;100.00;98875.91;5004823;28;20049;-73
2022/03/23 06:07:44;;;;;;;29.30;20.23;;;1.40;99.90;;;-0.18;100.00;98876.41;5010478;28;20046;-73
2022/03/23 06:10:12;;;;;;;31.77;20.92;;;1.30;99.90;;;-0.26;100.00;98892.41;5002359;28;20125;-74
2022/03/23 06:12:39;;;;;;;30.95;20.60;;;1.20;99.90;;;-0.05;100.00;98878.38;5010363;28;20055;-73
2022/03/23 06:15:08;;;;;;;29.02;19.38;;;1.20;99.90;;;0.22;100.00;98879.78;5001432;28;20077;-74
2022/03/23 06:17:37;;;;;;;27.48;18.40;;;1.30;99.90;;;0.56;100.00;98878.72;5015481;28;20049;-73
2022/03/23 06:20:06;;;;;;;26.77;18.52;;;1.40;99.90;;;0.69;100.00;98880.66;5001629;28;20657;-73
2022/03/23 06:22:33;;;;;;;30.33;19.50;;;1.50;99.90;;;0.88;100.00;98883.53;5014884;28;20129;-73
2022/03/23 06:25:00;;;;;;;29.10;19.77;;;1.60;99.90;;;1.07;100.00;98888.09;4999086;28;20133;-73
2022/03/23 06:27:27;;;;;;;30.92;19.58;;;1.80;99.90;;;1.26;100.00;98879.06;5003935;28;20073;-74
2022/03/23 06:29:55;;;;;;;27.08;18.90;;;1.90;99.90;;;1.29;100.00;98876.53;4998071;28;20504;-72
2022/03/23 06:32:22;;;;;;;28.60;20.45;;;2.00;99.90;;;1.29;100.00;98873.97;5000004;28;20128;-73
2022/03/23 06:34:49;;;;;;;33.00;19.42;;;2.00;99.90;;;1.30;100.00;98879.94;4996780;28;20240;-72
2022/03/23 06:37:16;;;;;;;31.95;18.83;;;2.10;99.90;;;1.28;100.00;98877.38;5003125;28;20108;-73
2022/03/23 06:39:43;;;;;;;30.65;16.55;;;2.10;99.90;;;1.58;100.00;98886.34;4998340;28;20050;-73
2022/03/23 06:42:10;;;;;;;29.60;18.25;;;2.30;99.90;;;1.66;100.00;98884.75;5005252;28;20085;-73
2022/03/23 06:44:38;;;;;;;27.67;18.35;;;2.40;99.90;;;1.81;100.00;98879.84;5003200;28;20124;-73
2022/03/23 06:47:05;;;;;;;27.75;17.27;;;2.60;99.90;;;1.95;100.00;98884.28;5002758;28;20110;-74
2022/03/23 06:49:32;;;;;;;27.23;17.95;;;2.70;99.90;;;2.16;100.00;98883.69;5007085;28;20543;-72
2022/03/23 06:52:00;;;;;;;29.50;17.95;;;2.80;99.90;;;2.15;100.00;98887.94;5014034;28;20137;-72
2022/03/23 06:54:27;;;;;;;35.42;18.27;;;2.90;99.90;;;2.15;100.00;98890.50;5006809;28;20786;-73
2022/03/23 06:56:55;;;;;;;27.88;17.92;;;3.00;99.90;;;2.28;100.00;98891.50;5007944;28;20137;-72
2022/03/23 06:59:22;;;;;;;34.75;18.88;;;3.10;99.90;;;2.47;100.00;98893.44;5002076;28;20045;-72
2022/03/23 07:01:49;;;;;;;30.65;18.92;;;3.20;99.90;;;2.71;100.00;98891.97;5008230;28;20049;-73
2022/03/23 07:04:16;;;;;;;31.65;20.35;;;3.40;99.90;;;2.79;100.00;98892.91;5006762;28;20530;-75
2022/03/23 07:06:43;;;;;;;64.53;38.08;;;3.60;99.90;;;3.01;100.00;98896.53;5022899;28;20050;-73
2022/03/23 07:11:56;;;;;;;51.67;33.13;;;3.90;99.90;;;3.08;100.00;98894.84;5006637;28;20133;-73
2022/03/23 07:14:23;;;;;;;51.17;31.77;;;4.10;99.90;;;3.35;100.00;98891.66;5004778;28;20908;-73
2022/03/23 07:16:50;;;;;;;40.38;26.95;;;4.30;99.90;;;3.53;100.00;98893.50;5003485;28;20132;-73
2022/03/23 07:19:17;;;;;;;33.90;23.05;;;4.50;99.90;;;3.76;100.00;98896.19;5003522;28;20154;-73
2022/03/23 07:21:44;;;;;;;32.10;19.95;;;4.70;99.90;;;4.04;100.00;98886.97;5001566;28;20049;-73
2022/03/23 07:24:11;;;;;;;31.27;19.45;;;5.00;99.90;;;4.37;100.00;98883.63;5003761;28;20132;-73
2022/03/23 07:26:38;;;;;;;33.13;20.17;;;5.20;99.90;;;4.38;100.00;98892.22;5000104;28;20568;-74
2022/03/23 07:29:06;;;;;;;35.25;21.73;;;5.40;99.90;;;4.58;100.00;98884.56;5001204;28;20076;-74
2022/03/23 07:31:34;;;;;;;35.47;22.23;;;5.60;99.90;;;4.67;100.00;98892.28;4987019;28;20456;-73
2022/03/23 07:34:04;;;;;;;33.47;20.63;;;5.80;99.90;;;5.08;100.00;98888.91;5008286;28;20083;-73
2022/03/23 07:36:33;;;;;;;30.55;20.95;;;6.00;99.90;;;5.35;100.00;98884.63;5003917;28;20050;-74
2022/03/23 07:39:01;;;;;;;32.33;20.70;;;6.20;99.90;;;5.53;100.00;98892.31;5019302;28;20109;-74
2022/03/23 07:41:27;;;;;;;30.58;19.15;;;6.40;99.90;;;5.86;100.00;98885.38;5006839;28;20084;-73
2022/03/23 07:43:54;;;;;;;31.17;20.70;;;6.60;99.90;;;5.91;100.00;98888.81;5006779;28;20042;-73
2022/03/23 07:46:22;;;;;;;34.80;21.13;;;6.80;99.90;;;6.17;100.00;98891.34;5000656;28;20153;-73
2022/03/23 07:48:49;;;;;;;31.23;20.33;;;7.00;99.90;;;6.27;100.00;98892.16;5004761;28;20046;-74
2022/03/23 07:51:16;;;;;;;32.88;20.83;;;7.20;99.90;;;6.40;100.00;98891.25;5007264;28;20444;-73
2022/03/23 07:53:43;;;;;;;31.48;19.85;;;7.40;99.90;;;6.77;100.00;98891.03;5008155;28;20154;-74
2022/03/23 07:56:10;;;;;;;31.73;18.88;;;7.70;99.90;;;7.07;100.00;98896.84;5004874;28;20077;-74
2022/03/23 07:58:37;;;;;;;32.63;20.05;;;7.90;99.90;;;7.51;100.00;98895.66;5006286;28;20073;-74
2022/03/23 08:01:04;;;;;;;28.80;20.23;;;8.30;99.90;;;7.79;100.00;98892.78;5005474;28;20072;-74
2022/03/23 08:03:31;;;;;;;35.42;20.83;;;8.60;99.90;;;8.20;100.00;98897.50;5003639;28;20101;-74
2022/03/23 08:05:58;;;;;;;35.08;22.15;;;9.10;99.90;;;8.66;100.00;98890.91;5002345;28;20052;-74
2022/03/23 08:08:25;;;;;;;33.08;21.05;;;9.70;99.90;;;9.39;100.00;98884.59;4997128;28;20073;-73
2022/03/23 08:10:53;;;;;;;33.08;21.17;;;10.40;99.90;;;10.12;100.00;98886.72;5001600;28;20049;-73
2022/03/23 08:13:22;;;;;;;30.75;18.83;;;11.00;99.90;;;10.92;100.00;98890.25;5001852;28;20104;-74
2022/03/23 08:15:49;;;;;;;32.13;21.30;;;11.60;99.90;;;11.60;100.00;98896.41;4994531;28;20096;-73
2022/03/23 08:18:21;;;;;;;30.05;20.63;;;12.10;99.20;;;12.18;100.00;98883.59;5001875;28;20082;-73
2022/03/23 08:20:50;;;;;;;32.10;20.40;;;12.50;96.90;;;12.35;100.00;98886.59;5000653;28;20145;-74
2022/03/23 08:23:19;;;;;;;28.55;20.80;;;12.80;95.00;;;12.68;100.00;98881.28;5000726;28;20497;-74
2022/03/23 08:25:46;;;;;;;30.35;20.80;;;13.10;94.40;;;13.03;100.00;98885.41;5003596;28;20136;-74
2022/03/23 08:28:14;;;;;;;25.70;18.23;;;13.30;94.30;;;14.00;100.00;98884.78;5001780;28;20116;-74
2022/03/23 08:30:43;;;;;;;26.55;19.23;;;13.80;93.90;;;14.44;100.00;98875.34;5006627;28;20042;-74
2022/03/23 08:33:11;;;;;;;29.60;20.58;;;14.00;91.30;;;14.28;100.00;98878.56;5000213;28;20057;-73
2022/03/23 08:35:39;;;;;;;28.33;18.83;;;14.10;90.30;;;14.87;100.00;98883.34;5000275;28;20042;-74
2022/03/23 08:38:07;;;;;;;32.25;19.92;;;14.50;90.30;;;15.53;96.19;98878.06;4999857;28;20058;-74
2022/03/23 08:40:35;;;;;;;24.05;17.98;;;14.70;88.60;;;16.40;97.20;98875.16;5014620;28;20050;-73
2022/03/23 08:43:03;;;;;;;29.75;21.52;;;15.10;87.20;;;16.77;91.49;98874.31;5000184;28;20046;-73
2022/03/23 08:45:30;;;;;;;32.80;22.02;;;15.50;85.40;;;16.91;93.42;98873.69;5002130;28;20077;-73
2022/03/23 08:47:59;;;;;;;24.52;19.75;;;15.80;85.00;;;17.41;88.51;98872.16;5001753;28;20050;-74
2022/03/23 08:50:26;;;;;;;39.33;26.65;;;16.20;82.70;;;18.23;85.78;98876.75;5002482;28;20069;-73
2022/03/23 08:52:54;;;;;;;44.65;32.55;;;16.60;81.00;;;17.76;83.04;98870.38;4998243;28;20072;-74
2022/03/23 08:55:23;;;;;;;46.08;32.22;;;16.80;78.10;;;17.95;83.15;98873.78;5003729;28;20046;-74
2022/03/23 08:57:50;;;;;;;37.00;25.38;;;17.10;77.50;;;17.79;79.16;98872.84;5005138;28;20046;-73
2022/03/23 09:00:17;;;;;;;33.03;24.63;;;17.30;74.70;;;18.38;80.27;98879.41;5000609;28;20145;-73
2022/03/23 09:02:44;;;;;;;30.50;24.55;;;17.60;75.50;;;18.90;82.36;98870.44;5000358;28;20078;-74
2022/03/23 09:05:14;;;;;;;28.00;18.35;;;17.80;75.10;;;18.29;79.78;98873.78;4999685;28;20056;-74
2022/03/23 09:07:42;;;;;;;22.38;17.63;;;17.90;72.90;;;18.51;75.92;98868.22;4996886;28;20388;-73
2022/03/23 09:10:13;;;;;;;27.42;17.30;;;17.70;71.40;;;18.09;74.25;98874.84;4999039;28;20050;-74
2022/03/23 09:12:41;;;;;;;25.20;17.17;;;17.70;70.10;;;17.25;69.24;98875.53;4999165;28;20069;-73
2022/03/23 09:15:13;;;;;;;23.30;16.75;;;17.70;67.60;;;18.32;68.69;98868.38;4995692;28;20050;-73
2022/03/23 09:17:41;;;;;;;25.63;17.90;;;17.50;68.40;;;17.40;67.56;98870.44;5000794;28;20077;-73
2022/03/23 09:20:11;;;;;;;22.95;17.70;;;17.40;66.90;;;17.98;71.33;98871.00;4996819;28;20144;-73
2022/03/23 09:22:40;;;;;;;28.55;18.38;;;17.40;68.20;;;17.91;72.63;98877.50;5003089;28;20084;-73
2022/03/23 09:25:12;;;;;;;23.13;17.25;;;17.60;68.90;;;18.92;67.43;98875.63;5002508;28;20116;-73
2022/03/23 09:27:43;;;;;;;21.63;17.23;;;17.80;67.90;;;19.18;66.76;98882.91;5003414;28;20058;-73
2022/03/23 09:30:13;;;;;;;19.83;16.45;;;18.00;67.40;;;18.69;67.33;98875.09;5001327;28;20137;-71
2022/03/23 09:32:44;;;;;;;21.02;15.98;;;18.20;67.10;;;18.29;64.44;98876.41;4999788;28;20046;-73
2022/03/23 09:35:13;;;;;;;20.55;16.77;;;18.00;65.40;;;17.27;68.55;98880.72;5005364;28;20471;-72
2022/03/23 09:37:47;;;;;;;21.35;16.17;;;18.10;65.90;;;17.86;66.13;98869.03;5018665;28;20045;-73
2022/03/23 09:40:24;;;;;;;19.63;15.60;;;18.00;65.00;;;18.25;60.86;98870.47;5002082;28;20047;-74
2022/03/23 09:43:03;;;;;;;21.38;16.63;;;18.10;64.00;;;18.12;63.45;98872.91;4998122;28;20054;-72
2022/03/23 09:48:02;;;;;;;22.08;15.73;;;18.40;63.80;;;17.27;60.15;98871.06;5003812;28;20046;-73
2022/03/23 09:50:33;;;;;;;23.15;15.00;;;18.60;61.80;;;17.83;59.15;98873.56;5003782;28;20141;-73
2022/03/23 09:53:00;;;;;;;24.52;16.02;;;18.50;61.90;;;18.36;58.77;98870.75;5000197;28;20134;-73
2022/03/23 09:55:27;;;;;;;22.45;15.57;;;18.40;62.40;;;17.90;60.72;98881.06;5001567;28;20056;-73
2022/03/23 09:57:57;;;;;;;21.67;15.82;;;18.20;62.50;;;18.32;59.20;98871.84;5001485;28;20053;-73
2022/03/23 10:00:29;;;;;;;25.52;17.55;;;18.30;62.50;;;18.18;59.74;98872.59;5000737;28;20128;-73
2022/03/23 10:03:11;;;;;;;;;;;18.20;62.30;;;18.06;65.25;98877.63;5003985;28;20132;-73
2022/03/23 10:06:15;;;;;;;24.92;16.75;;;18.50;64.00;;;17.78;60.88;98873.78;5002672;28;19952;-73
2022/03/23 10:09:06;;;;;;;20.90;16.33;;;18.30;62.20;;;17.60;65.75;98872.09;5000784;28;20140;-73
2022/03/23 10:12:29;;;;;;;23.77;16.05;;;18.10;63.80;;;19.15;60.44;98872.53;5005375;28;20074;-73
2022/03/23 10:15:53;;;;;;;22.13;16.95;;;18.40;63.10;;;18.80;59.14;98870.13;5001999;28;20503;-72
2022/03/23 10:18:57;;;;;;;25.42;15.30;;;18.30;63.00;;;18.26;63.24;98872.16;5000651;28;20046;-72
2022/03/23 10:21:31;;;;;;;25.27;15.55;;;18.10;64.50;;;18.34;61.79;98872.63;5003030;28;20050;-72
2022/03/23 10:23:58;;;;;;;23.17;15.68;;;17.80;64.10;;;18.00;61.91;98870.94;4994223;28;20061;-72
2022/03/23 10:26:26;;;;;;;18.95;14.13;;;17.60;64.40;;;18.52;60.62;98868.16;5005828;28;20073;-71
2022/03/23 10:28:54;;;;;;;20.73;16.33;;;17.50;64.80;;;17.69;61.78;98874.25;5011633;28;20045;-71
2022/03/23 10:31:25;;;;;;;22.92;14.52;;;17.30;64.40;;;17.37;65.51;98870.63;5019585;28;20054;-72
2022/03/23 10:34:09;;;;;;;25.30;16.38;;;16.90;66.20;;;16.99;68.58;98875.94;5005695;28;20054;-72